sensor_id;sensor_type;location;lat;lon;timestamp;P1;durP1;ratioP1;P2;durP2;ratioP2
3261;SDS011;1643;47.746;9.000;2023-02-28T00:00:15;5.30;;;4.40;;
3261;SDS011;1643;47.746;9.000;2023-02-28T00:02:41;5.30;;;4.47;;
3261;SDS011;1643;47.746;9.000;2023-02-28T00:05:08;6.80;;;4.40;;
3261;SDS011;1643;47.746;9.000;2023-02-28T00:07:38;6.60;;;4.37;;
3261;SDS011;1643;47.746;9.000;2023-02-28T00:10:07;5.13;;;4.00;;
3261;SDS011;1643;47.746;9.000;2023-02-28T00:12:35;5.30;;;4.77;;
3261;SDS011;1643;47.746;9.000;2023-02-28T00:15:01;5.70;;;3.90;;
3261;SDS011;1643;47.746;9.000;2023-02-28T00:17:29;7.03;;;5.20;;
3261;SDS011;1643;47.746;9.000;2023-02-28T00:19:55;8.40;;;4.90;;
3261;SDS011;1643;47.746;9.000;2023-02-28T00:22:22;5.73;;;5.03;;
3261;SDS011;1643;47.746;9.000;2023-02-28T00:24:47;4.80;;;4.17;;
3261;SDS011;1643;47.746;9.000;2023-02-28T00:27:13;5.20;;;4.70;;
3261;SDS011;1643;47.746;9.000;2023-02-28T00:29:39;5.33;;;4.47;;
3261;SDS011;1643;47.746;9.000;2023-02-28T00:32:05;5.07;;;4.27;;
3261;SDS011;1643;47.746;9.000;2023-02-28T00:34:31;5.63;;;4.43;;
3261;SDS011;1643;47.746;9.000;2023-02-28T00:37:03;6.53;;;5.23;;
3261;SDS011;1643;47.746;9.000;2023-02-28T00:39:30;6.17;;;4.77;;
3261;SDS011;1643;47.746;9.000;2023-02-28T00:41:56;14.93;;;4.60;;
3261;SDS011;1643;47.746;9.000;2023-02-28T00:44:21;6.63;;;4.53;;
3261;SDS011;1643;47.746;9.000;2023-02-28T00:46:47;6.23;;;5.00;;
3261;SDS011;1643;47.746;9.000;2023-02-28T00:49:13;5.17;;;4.57;;
3261;SDS011;1643;47.746;9.000;2023-02-28T00:51:38;4.70;;;4.30;;
3261;SDS011;1643;47.746;9.000;2023-02-28T00:54:04;7.03;;;5.27;;
3261;SDS011;1643;47.746;9.000;2023-02-28T00:56:29;4.70;;;3.80;;
3261;SDS011;1643;47.746;9.000;2023-02-28T00:58:55;6.00;;;4.30;;
3261;SDS011;1643;47.746;9.000;2023-02-28T01:01:21;5.60;;;5.10;;
3261;SDS011;1643;47.746;9.000;2023-02-28T01:03:46;5.77;;;4.50;;
3261;SDS011;1643;47.746;9.000;2023-02-28T01:06:12;5.37;;;4.87;;
3261;SDS011;1643;47.746;9.000;2023-02-28T01:08:37;5.43;;;4.70;;
3261;SDS011;1643;47.746;9.000;2023-02-28T01:11:07;5.93;;;4.50;;
3261;SDS011;1643;47.746;9.000;2023-02-28T01:13:36;4.17;;;3.77;;
3261;SDS011;1643;47.746;9.000;2023-02-28T01:16:02;5.33;;;4.80;;
3261;SDS011;1643;47.746;9.000;2023-02-28T01:18:28;6.83;;;5.23;;
3261;SDS011;1643;47.746;9.000;2023-02-28T01:20:54;5.67;;;4.83;;
3261;SDS011;1643;47.746;9.000;2023-02-28T01:23:20;4.13;;;3.50;;
3261;SDS011;1643;47.746;9.000;2023-02-28T01:25:48;6.27;;;4.10;;
3261;SDS011;1643;47.746;9.000;2023-02-28T01:28:17;4.00;;;3.70;;
3261;SDS011;1643;47.746;9.000;2023-02-28T01:30:46;4.40;;;4.00;;
3261;SDS011;1643;47.746;9.000;2023-02-28T01:33:13;4.63;;;4.13;;
3261;SDS011;1643;47.746;9.000;2023-02-28T01:35:38;5.13;;;3.73;;
3261;SDS011;1643;47.746;9.000;2023-02-28T01:38:04;5.93;;;4.97;;
3261;SDS011;1643;47.746;9.000;2023-02-28T01:40:29;5.73;;;4.77;;
3261;SDS011;1643;47.746;9.000;2023-02-28T01:42:55;3.50;;;3.23;;
3261;SDS011;1643;47.746;9.000;2023-02-28T01:45:25;4.43;;;3.43;;
3261;SDS011;1643;47.746;9.000;2023-02-28T01:48:03;4.67;;;4.03;;
3261;SDS011;1643;47.746;9.000;2023-02-28T01:50:34;5.70;;;4.07;;
3261;SDS011;1643;47.746;9.000;2023-02-28T01:53:04;3.73;;;3.43;;
3261;SDS011;1643;47.746;9.000;2023-02-28T01:55:33;4.30;;;3.90;;
3261;SDS011;1643;47.746;9.000;2023-02-28T01:58:00;4.97;;;4.00;;
3261;SDS011;1643;47.746;9.000;2023-02-28T02:00:28;5.70;;;3.33;;
3261;SDS011;1643;47.746;9.000;2023-02-28T02:02:58;6.37;;;4.90;;
3261;SDS011;1643;47.746;9.000;2023-02-28T02:05:30;3.60;;;3.20;;
3261;SDS011;1643;47.746;9.000;2023-02-28T02:07:56;5.63;;;4.10;;
3261;SDS011;1643;47.746;9.000;2023-02-28T02:10:39;6.07;;;4.27;;
3261;SDS011;1643;47.746;9.000;2023-02-28T02:13:14;4.93;;;3.80;;
3261;SDS011;1643;47.746;9.000;2023-02-28T02:18:51;5.73;;;3.90;;
3261;SDS011;1643;47.746;9.000;2023-02-28T02:30:27;4.90;;;3.83;;
3261;SDS011;1643;47.746;9.000;2023-02-28T02:36:22;4.30;;;3.50;;
3261;SDS011;1643;47.746;9.000;2023-02-28T02:41:41;4.40;;;3.67;;
3261;SDS011;1643;47.746;9.000;2023-02-28T02:44:26;3.67;;;3.37;;
3261;SDS011;1643;47.746;9.000;2023-02-28T02:47:00;3.60;;;2.80;;
3261;SDS011;1643;47.746;9.000;2023-02-28T02:49:34;3.67;;;3.37;;
3261;SDS011;1643;47.746;9.000;2023-02-28T02:52:06;4.20;;;3.47;;
3261;SDS011;1643;47.746;9.000;2023-02-28T02:54:35;5.40;;;4.47;;
3261;SDS011;1643;47.746;9.000;2023-02-28T02:57:08;4.27;;;3.87;;
3261;SDS011;1643;47.746;9.000;2023-02-28T02:59:47;4.60;;;4.07;;
3261;SDS011;1643;47.746;9.000;2023-02-28T03:02:15;4.70;;;4.30;;
3261;SDS011;1643;47.746;9.000;2023-02-28T03:04:43;3.20;;;3.00;;
3261;SDS011;1643;47.746;9.000;2023-02-28T03:07:13;4.23;;;3.80;;
3261;SDS011;1643;47.746;9.000;2023-02-28T03:09:39;4.20;;;3.50;;
3261;SDS011;1643;47.746;9.000;2023-02-28T03:12:04;4.37;;;3.97;;
3261;SDS011;1643;47.746;9.000;2023-02-28T03:20:08;11.20;;;4.00;;
3261;SDS011;1643;47.746;9.000;2023-02-28T03:33:22;4.50;;;3.47;;
3261;SDS011;1643;47.746;9.000;2023-02-28T03:35:55;4.93;;;3.43;;
3261;SDS011;1643;47.746;9.000;2023-02-28T03:38:27;4.20;;;3.70;;
3261;SDS011;1643;47.746;9.000;2023-02-28T03:43:36;3.97;;;3.57;;
3261;SDS011;1643;47.746;9.000;2023-02-28T03:46:07;2.90;;;2.70;;
3261;SDS011;1643;47.746;9.000;2023-02-28T03:48:45;4.30;;;3.70;;
3261;SDS011;1643;47.746;9.000;2023-02-28T03:51:17;4.83;;;4.03;;
3261;SDS011;1643;47.746;9.000;2023-02-28T03:53:50;4.30;;;3.90;;
3261;SDS011;1643;47.746;9.000;2023-02-28T03:56:38;3.27;;;2.97;;
3261;SDS011;1643;47.746;9.000;2023-02-28T03:59:18;5.33;;;4.27;;
3261;SDS011;1643;47.746;9.000;2023-02-28T04:01:58;3.93;;;3.53;;
3261;SDS011;1643;47.746;9.000;2023-02-28T04:04:24;4.03;;;3.73;;
3261;SDS011;1643;47.746;9.000;2023-02-28T04:06:50;4.33;;;3.90;;
3261;SDS011;1643;47.746;9.000;2023-02-28T04:09:16;3.57;;;3.27;;
3261;SDS011;1643;47.746;9.000;2023-02-28T04:11:44;4.43;;;3.60;;
3261;SDS011;1643;47.746;9.000;2023-02-28T04:14:16;6.60;;;4.10;;
3261;SDS011;1643;47.746;9.000;2023-02-28T04:16:42;4.80;;;4.03;;
3261;SDS011;1643;47.746;9.000;2023-02-28T04:19:08;4.27;;;3.83;;
3261;SDS011;1643;47.746;9.000;2023-02-28T04:21:36;4.77;;;3.43;;
3261;SDS011;1643;47.746;9.000;2023-02-28T04:24:10;4.93;;;4.00;;
3261;SDS011;1643;47.746;9.000;2023-02-28T04:26:40;3.67;;;3.33;;
3261;SDS011;1643;47.746;9.000;2023-02-28T04:29:12;7.00;;;3.73;;
3261;SDS011;1643;47.746;9.000;2023-02-28T04:31:39;5.10;;;3.97;;
3261;SDS011;1643;47.746;9.000;2023-02-28T04:34:05;5.87;;;4.20;;
3261;SDS011;1643;47.746;9.000;2023-02-28T04:36:31;4.80;;;4.17;;
3261;SDS011;1643;47.746;9.000;2023-02-28T04:38:57;4.87;;;3.60;;
3261;SDS011;1643;47.746;9.000;2023-02-28T04:41:23;4.57;;;3.70;;
3261;SDS011;1643;47.746;9.000;2023-02-28T04:43:48;4.80;;;4.33;;
3261;SDS011;1643;47.746;9.000;2023-02-28T04:46:16;4.17;;;3.50;;
3261;SDS011;1643;47.746;9.000;2023-02-28T04:48:43;3.77;;;3.37;;
3261;SDS011;1643;47.746;9.000;2023-02-28T04:51:10;3.97;;;3.60;;
3261;SDS011;1643;47.746;9.000;2023-02-28T04:53:37;4.70;;;3.70;;
3261;SDS011;1643;47.746;9.000;2023-02-28T04:56:04;4.30;;;3.90;;
3261;SDS011;1643;47.746;9.000;2023-02-28T04:58:31;4.53;;;4.10;;
3261;SDS011;1643;47.746;9.000;2023-02-28T05:01:04;4.80;;;4.13;;
3261;SDS011;1643;47.746;9.000;2023-02-28T05:03:38;4.60;;;3.97;;
3261;SDS011;1643;47.746;9.000;2023-02-28T05:06:05;7.30;;;4.70;;
3261;SDS011;1643;47.746;9.000;2023-02-28T05:08:32;5.77;;;4.50;;
3261;SDS011;1643;47.746;9.000;2023-02-28T05:10:57;6.27;;;5.00;;
3261;SDS011;1643;47.746;9.000;2023-02-28T05:13:25;5.40;;;3.80;;
3261;SDS011;1643;47.746;9.000;2023-02-28T05:15:51;5.43;;;4.50;;
3261;SDS011;1643;47.746;9.000;2023-02-28T05:18:17;5.00;;;3.70;;
3261;SDS011;1643;47.746;9.000;2023-02-28T05:20:43;4.77;;;3.30;;
3261;SDS011;1643;47.746;9.000;2023-02-28T05:23:10;4.57;;;4.17;;
3261;SDS011;1643;47.746;9.000;2023-02-28T05:25:37;5.00;;;4.43;;
3261;SDS011;1643;47.746;9.000;2023-02-28T05:28:06;6.23;;;4.53;;
3261;SDS011;1643;47.746;9.000;2023-02-28T05:30:32;4.33;;;3.93;;
3261;SDS011;1643;47.746;9.000;2023-02-28T05:32:58;6.30;;;4.67;;
3261;SDS011;1643;47.746;9.000;2023-02-28T05:35:24;9.73;;;7.67;;
3261;SDS011;1643;47.746;9.000;2023-02-28T05:37:51;5.00;;;4.60;;
3261;SDS011;1643;47.746;9.000;2023-02-28T05:40:16;4.40;;;4.00;;
3261;SDS011;1643;47.746;9.000;2023-02-28T05:42:44;5.00;;;4.30;;
3261;SDS011;1643;47.746;9.000;2023-02-28T05:45:10;5.60;;;4.70;;
3261;SDS011;1643;47.746;9.000;2023-02-28T05:47:35;21.53;;;10.20;;
3261;SDS011;1643;47.746;9.000;2023-02-28T05:50:01;22.10;;;13.17;;
3261;SDS011;1643;47.746;9.000;2023-02-28T05:52:28;18.93;;;11.60;;
3261;SDS011;1643;47.746;9.000;2023-02-28T05:54:55;17.37;;;11.60;;
3261;SDS011;1643;47.746;9.000;2023-02-28T05:57:20;8.47;;;7.27;;
3261;SDS011;1643;47.746;9.000;2023-02-28T05:59:47;7.53;;;6.10;;
3261;SDS011;1643;47.746;9.000;2023-02-28T06:02:13;5.87;;;4.80;;
3261;SDS011;1643;47.746;9.000;2023-02-28T06:04:41;5.80;;;5.20;;
3261;SDS011;1643;47.746;9.000;2023-02-28T06:07:07;5.90;;;4.50;;
3261;SDS011;1643;47.746;9.000;2023-02-28T06:09:33;6.43;;;5.70;;
3261;SDS011;1643;47.746;9.000;2023-02-28T06:11:59;6.70;;;5.97;;
3261;SDS011;1643;47.746;9.000;2023-02-28T06:14:29;5.97;;;4.50;;
3261;SDS011;1643;47.746;9.000;2023-02-28T06:16:56;5.43;;;4.90;;
3261;SDS011;1643;47.746;9.000;2023-02-28T06:19:22;5.70;;;4.60;;
3261;SDS011;1643;47.746;9.000;2023-02-28T06:21:50;7.50;;;5.13;;
3261;SDS011;1643;47.746;9.000;2023-02-28T06:24:17;7.50;;;5.37;;
3261;SDS011;1643;47.746;9.000;2023-02-28T06:26:44;8.70;;;4.70;;
3261;SDS011;1643;47.746;9.000;2023-02-28T06:29:10;6.67;;;5.03;;
3261;SDS011;1643;47.746;9.000;2023-02-28T06:31:36;8.80;;;5.60;;
3261;SDS011;1643;47.746;9.000;2023-02-28T06:34:03;7.40;;;5.10;;
3261;SDS011;1643;47.746;9.000;2023-02-28T06:36:29;7.30;;;5.70;;
3261;SDS011;1643;47.746;9.000;2023-02-28T06:38:55;6.83;;;5.30;;
3261;SDS011;1643;47.746;9.000;2023-02-28T06:41:24;6.60;;;5.20;;
3261;SDS011;1643;47.746;9.000;2023-02-28T06:43:51;6.73;;;5.50;;
3261;SDS011;1643;47.746;9.000;2023-02-28T06:46:18;6.90;;;5.03;;
3261;SDS011;1643;47.746;9.000;2023-02-28T06:48:44;6.57;;;4.90;;
3261;SDS011;1643;47.746;9.000;2023-02-28T06:51:14;5.10;;;4.60;;
3261;SDS011;1643;47.746;9.000;2023-02-28T06:53:45;5.57;;;4.87;;
3261;SDS011;1643;47.746;9.000;2023-02-28T06:56:11;5.73;;;4.80;;
3261;SDS011;1643;47.746;9.000;2023-02-28T06:58:38;5.30;;;4.80;;
3261;SDS011;1643;47.746;9.000;2023-02-28T07:01:05;6.87;;;5.03;;
3261;SDS011;1643;47.746;9.000;2023-02-28T07:03:32;8.07;;;6.47;;
3261;SDS011;1643;47.746;9.000;2023-02-28T07:05:58;5.77;;;5.07;;
3261;SDS011;1643;47.746;9.000;2023-02-28T07:08:24;6.70;;;4.90;;
3261;SDS011;1643;47.746;9.000;2023-02-28T07:10:53;6.47;;;5.37;;
3261;SDS011;1643;47.746;9.000;2023-02-28T07:13:19;6.27;;;5.23;;
3261;SDS011;1643;47.746;9.000;2023-02-28T07:15:52;8.20;;;6.27;;
3261;SDS011;1643;47.746;9.000;2023-02-28T07:18:19;7.53;;;5.60;;
3261;SDS011;1643;47.746;9.000;2023-02-28T07:20:45;9.93;;;7.17;;
3261;SDS011;1643;47.746;9.000;2023-02-28T07:23:10;6.50;;;5.63;;
3261;SDS011;1643;47.746;9.000;2023-02-28T07:25:36;6.53;;;5.50;;
3261;SDS011;1643;47.746;9.000;2023-02-28T07:28:01;7.70;;;5.73;;
3261;SDS011;1643;47.746;9.000;2023-02-28T07:30:27;7.57;;;5.70;;
3261;SDS011;1643;47.746;9.000;2023-02-28T07:32:53;9.83;;;6.97;;
3261;SDS011;1643;47.746;9.000;2023-02-28T07:35:20;9.70;;;6.10;;
3261;SDS011;1643;47.746;9.000;2023-02-28T07:37:46;9.73;;;6.90;;
3261;SDS011;1643;47.746;9.000;2023-02-28T07:40:12;6.37;;;5.77;;
3261;SDS011;1643;47.746;9.000;2023-02-28T07:42:41;6.73;;;6.03;;
3261;SDS011;1643;47.746;9.000;2023-02-28T07:45:07;6.97;;;6.27;;
3261;SDS011;1643;47.746;9.000;2023-02-28T07:47:36;6.70;;;5.93;;
3261;SDS011;1643;47.746;9.000;2023-02-28T07:50:03;9.10;;;6.50;;
3261;SDS011;1643;47.746;9.000;2023-02-28T07:52:28;6.77;;;5.70;;
3261;SDS011;1643;47.746;9.000;2023-02-28T07:54:54;7.93;;;5.20;;
3261;SDS011;1643;47.746;9.000;2023-02-28T07:57:20;5.90;;;5.27;;
3261;SDS011;1643;47.746;9.000;2023-02-28T07:59:45;6.17;;;5.20;;
3261;SDS011;1643;47.746;9.000;2023-02-28T08:02:14;7.67;;;6.73;;
3261;SDS011;1643;47.746;9.000;2023-02-28T08:04:41;9.90;;;6.33;;
3261;SDS011;1643;47.746;9.000;2023-02-28T08:07:07;8.73;;;5.90;;
3261;SDS011;1643;47.746;9.000;2023-02-28T08:09:33;13.63;;;8.83;;
3261;SDS011;1643;47.746;9.000;2023-02-28T08:11:59;9.77;;;6.97;;
3261;SDS011;1643;47.746;9.000;2023-02-28T08:14:25;9.10;;;6.33;;
3261;SDS011;1643;47.746;9.000;2023-02-28T08:16:50;6.70;;;5.77;;
3261;SDS011;1643;47.746;9.000;2023-02-28T08:19:16;6.57;;;5.07;;
3261;SDS011;1643;47.746;9.000;2023-02-28T08:21:42;7.67;;;5.80;;
3261;SDS011;1643;47.746;9.000;2023-02-28T08:24:07;8.60;;;7.70;;
3261;SDS011;1643;47.746;9.000;2023-02-28T08:26:33;8.97;;;7.43;;
3261;SDS011;1643;47.746;9.000;2023-02-28T08:28:59;9.87;;;8.17;;
3261;SDS011;1643;47.746;9.000;2023-02-28T08:31:24;9.80;;;6.30;;
3261;SDS011;1643;47.746;9.000;2023-02-28T08:33:50;7.17;;;6.47;;
3261;SDS011;1643;47.746;9.000;2023-02-28T08:36:18;6.00;;;5.40;;
3261;SDS011;1643;47.746;9.000;2023-02-28T08:38:44;8.17;;;6.50;;
3261;SDS011;1643;47.746;9.000;2023-02-28T08:41:11;8.10;;;5.93;;
3261;SDS011;1643;47.746;9.000;2023-02-28T08:43:37;6.60;;;5.47;;
3261;SDS011;1643;47.746;9.000;2023-02-28T08:46:04;6.73;;;5.60;;
3261;SDS011;1643;47.746;9.000;2023-02-28T08:48:31;9.93;;;7.60;;
3261;SDS011;1643;47.746;9.000;2023-02-28T08:51:02;9.20;;;5.90;;
3261;SDS011;1643;47.746;9.000;2023-02-28T08:53:30;7.30;;;5.77;;
3261;SDS011;1643;47.746;9.000;2023-02-28T08:56:00;8.20;;;6.07;;
3261;SDS011;1643;47.746;9.000;2023-02-28T08:58:28;7.57;;;5.80;;
3261;SDS011;1643;47.746;9.000;2023-02-28T09:00:53;6.50;;;5.07;;
3261;SDS011;1643;47.746;9.000;2023-02-28T09:03:20;7.37;;;5.87;;
3261;SDS011;1643;47.746;9.000;2023-02-28T09:08:20;9.60;;;6.80;;
3261;SDS011;1643;47.746;9.000;2023-02-28T09:10:45;7.00;;;5.57;;
3261;SDS011;1643;47.746;9.000;2023-02-28T09:13:12;7.03;;;6.03;;
3261;SDS011;1643;47.746;9.000;2023-02-28T09:15:37;6.97;;;6.17;;
3261;SDS011;1643;47.746;9.000;2023-02-28T09:18:03;8.63;;;6.37;;
3261;SDS011;1643;47.746;9.000;2023-02-28T09:20:29;6.07;;;5.43;;
3261;SDS011;1643;47.746;9.000;2023-02-28T09:22:55;7.07;;;5.90;;
3261;SDS011;1643;47.746;9.000;2023-02-28T09:25:20;6.37;;;5.53;;
3261;SDS011;1643;47.746;9.000;2023-02-28T09:27:46;8.07;;;5.90;;
3261;SDS011;1643;47.746;9.000;2023-02-28T09:30:12;15.87;;;10.77;;
3261;SDS011;1643;47.746;9.000;2023-02-28T09:32:38;22.00;;;12.50;;
3261;SDS011;1643;47.746;9.000;2023-02-28T09:35:04;10.50;;;6.63;;
3261;SDS011;1643;47.746;9.000;2023-02-28T09:37:30;8.23;;;6.53;;
3261;SDS011;1643;47.746;9.000;2023-02-28T09:39:56;7.87;;;5.50;;
3261;SDS011;1643;47.746;9.000;2023-02-28T09:42:25;7.37;;;5.97;;
3261;SDS011;1643;47.746;9.000;2023-02-28T09:44:57;8.53;;;6.20;;
3261;SDS011;1643;47.746;9.000;2023-02-28T09:47:32;7.87;;;6.07;;
3261;SDS011;1643;47.746;9.000;2023-02-28T09:52:50;11.90;;;7.07;;
3261;SDS011;1643;47.746;9.000;2023-02-28T09:57:58;9.33;;;7.27;;
3261;SDS011;1643;47.746;9.000;2023-02-28T10:00:35;7.30;;;6.23;;
3261;SDS011;1643;47.746;9.000;2023-02-28T10:11:23;9.50;;;6.83;;
3261;SDS011;1643;47.746;9.000;2023-02-28T10:14:01;8.00;;;6.50;;
3261;SDS011;1643;47.746;9.000;2023-02-28T10:16:48;9.73;;;7.00;;
3261;SDS011;1643;47.746;9.000;2023-02-28T10:19:32;8.47;;;7.10;;
3261;SDS011;1643;47.746;9.000;2023-02-28T10:22:24;8.87;;;7.37;;
3261;SDS011;1643;47.746;9.000;2023-02-28T10:24:52;9.10;;;6.93;;
3261;SDS011;1643;47.746;9.000;2023-02-28T10:27:22;8.77;;;7.27;;
3261;SDS011;1643;47.746;9.000;2023-02-28T10:29:55;9.77;;;6.97;;
3261;SDS011;1643;47.746;9.000;2023-02-28T10:32:24;7.93;;;7.00;;
3261;SDS011;1643;47.746;9.000;2023-02-28T10:35:16;11.20;;;7.37;;
3261;SDS011;1643;47.746;9.000;2023-02-28T10:37:44;10.80;;;9.00;;
3261;SDS011;1643;47.746;9.000;2023-02-28T10:42:47;9.60;;;7.53;;
3261;SDS011;1643;47.746;9.000;2023-02-28T10:45:23;12.33;;;8.60;;
3261;SDS011;1643;47.746;9.000;2023-02-28T10:47:51;9.23;;;7.20;;
3261;SDS011;1643;47.746;9.000;2023-02-28T10:53:10;9.03;;;7.00;;
3261;SDS011;1643;47.746;9.000;2023-02-28T10:55:42;10.20;;;7.27;;
3261;SDS011;1643;47.746;9.000;2023-02-28T10:58:21;8.90;;;7.30;;
3261;SDS011;1643;47.746;9.000;2023-02-28T11:00:51;8.40;;;7.47;;
3261;SDS011;1643;47.746;9.000;2023-02-28T11:03:38;8.83;;;7.10;;
3261;SDS011;1643;47.746;9.000;2023-02-28T11:06:07;10.87;;;7.87;;
3261;SDS011;1643;47.746;9.000;2023-02-28T11:08:43;9.60;;;7.40;;
3261;SDS011;1643;47.746;9.000;2023-02-28T11:11:14;11.10;;;7.50;;
3261;SDS011;1643;47.746;9.000;2023-02-28T11:13:41;10.40;;;7.60;;
3261;SDS011;1643;47.746;9.000;2023-02-28T11:16:09;10.80;;;7.70;;
3261;SDS011;1643;47.746;9.000;2023-02-28T11:18:39;9.77;;;7.23;;
3261;SDS011;1643;47.746;9.000;2023-02-28T11:21:16;11.47;;;7.20;;
3261;SDS011;1643;47.746;9.000;2023-02-28T11:23:45;8.77;;;7.07;;
3261;SDS011;1643;47.746;9.000;2023-02-28T11:26:12;8.20;;;7.00;;
3261;SDS011;1643;47.746;9.000;2023-02-28T11:28:39;12.10;;;8.40;;
3261;SDS011;1643;47.746;9.000;2023-02-28T11:38:51;9.97;;;7.60;;
3261;SDS011;1643;47.746;9.000;2023-02-28T11:44:32;10.37;;;7.70;;
3261;SDS011;1643;47.746;9.000;2023-02-28T11:47:28;7.30;;;6.10;;
3261;SDS011;1643;47.746;9.000;2023-02-28T11:55:17;8.37;;;7.00;;
3261;SDS011;1643;47.746;9.000;2023-02-28T11:58:05;8.13;;;6.23;;
3261;SDS011;1643;47.746;9.000;2023-02-28T12:03:37;11.87;;;8.60;;
3261;SDS011;1643;47.746;9.000;2023-02-28T12:23:03;11.27;;;7.47;;
3261;SDS011;1643;47.746;9.000;2023-02-28T12:25:52;10.93;;;8.43;;
3261;SDS011;1643;47.746;9.000;2023-02-28T12:28:30;9.97;;;7.80;;
3261;SDS011;1643;47.746;9.000;2023-02-28T12:31:04;12.67;;;8.33;;
3261;SDS011;1643;47.746;9.000;2023-02-28T12:33:36;13.50;;;9.40;;
3261;SDS011;1643;47.746;9.000;2023-02-28T12:36:09;11.60;;;8.70;;
3261;SDS011;1643;47.746;9.000;2023-02-28T12:38:41;11.90;;;8.30;;
3261;SDS011;1643;47.746;9.000;2023-02-28T12:41:37;14.90;;;9.27;;
3261;SDS011;1643;47.746;9.000;2023-02-28T12:47:04;13.70;;;8.90;;
3261;SDS011;1643;47.746;9.000;2023-02-28T12:49:56;11.27;;;8.60;;
3261;SDS011;1643;47.746;9.000;2023-02-28T12:52:48;11.23;;;8.13;;
3261;SDS011;1643;47.746;9.000;2023-02-28T13:01:21;11.43;;;8.47;;
3261;SDS011;1643;47.746;9.000;2023-02-28T13:06:14;13.93;;;8.67;;
3261;SDS011;1643;47.746;9.000;2023-02-28T13:11:40;13.60;;;8.40;;
3261;SDS011;1643;47.746;9.000;2023-02-28T13:22:44;12.60;;;8.90;;
3261;SDS011;1643;47.746;9.000;2023-02-28T13:27:51;12.60;;;7.80;;
3261;SDS011;1643;47.746;9.000;2023-02-28T13:38:56;11.00;;;7.90;;
3261;SDS011;1643;47.746;9.000;2023-02-28T13:44:01;10.27;;;7.33;;
3261;SDS011;1643;47.746;9.000;2023-02-28T13:46:32;14.23;;;9.50;;
3261;SDS011;1643;47.746;9.000;2023-02-28T13:51:50;13.40;;;8.50;;
3261;SDS011;1643;47.746;9.000;2023-02-28T13:54:52;12.83;;;8.67;;
3261;SDS011;1643;47.746;9.000;2023-02-28T14:06:07;12.00;;;9.20;;
3261;SDS011;1643;47.746;9.000;2023-02-28T14:08:53;13.27;;;9.40;;
3261;SDS011;1643;47.746;9.000;2023-02-28T14:11:39;13.00;;;9.20;;
3261;SDS011;1643;47.746;9.000;2023-02-28T14:14:07;13.17;;;9.00;;
3261;SDS011;1643;47.746;9.000;2023-02-28T14:16:39;13.70;;;9.40;;
3261;SDS011;1643;47.746;9.000;2023-02-28T14:19:19;16.20;;;11.10;;
3261;SDS011;1643;47.746;9.000;2023-02-28T14:27:21;12.63;;;9.20;;
3261;SDS011;1643;47.746;9.000;2023-02-28T14:35:42;13.47;;;8.43;;
3261;SDS011;1643;47.746;9.000;2023-02-28T14:38:13;11.97;;;9.23;;
3261;SDS011;1643;47.746;9.000;2023-02-28T14:40:53;11.53;;;9.10;;
3261;SDS011;1643;47.746;9.000;2023-02-28T14:43:22;17.70;;;10.70;;
3261;SDS011;1643;47.746;9.000;2023-02-28T14:45:50;16.13;;;10.40;;
3261;SDS011;1643;47.746;9.000;2023-02-28T14:48:19;13.87;;;10.67;;
3261;SDS011;1643;47.746;9.000;2023-02-28T14:50:50;14.53;;;10.13;;
3261;SDS011;1643;47.746;9.000;2023-02-28T14:53:18;13.73;;;10.70;;
3261;SDS011;1643;47.746;9.000;2023-02-28T14:55:46;15.00;;;10.07;;
3261;SDS011;1643;47.746;9.000;2023-02-28T14:58:21;12.93;;;9.70;;
3261;SDS011;1643;47.746;9.000;2023-02-28T15:00:52;17.57;;;9.60;;
3261;SDS011;1643;47.746;9.000;2023-02-28T15:05:57;10.87;;;8.73;;
3261;SDS011;1643;47.746;9.000;2023-02-28T15:08:25;15.30;;;11.37;;
3261;SDS011;1643;47.746;9.000;2023-02-28T15:11:07;14.10;;;10.50;;
3261;SDS011;1643;47.746;9.000;2023-02-28T15:13:39;11.80;;;10.00;;
3261;SDS011;1643;47.746;9.000;2023-02-28T15:16:17;12.67;;;9.33;;
3261;SDS011;1643;47.746;9.000;2023-02-28T15:21:19;24.37;;;14.67;;
3261;SDS011;1643;47.746;9.000;2023-02-28T15:24:10;15.57;;;11.03;;
3261;SDS011;1643;47.746;9.000;2023-02-28T15:26:52;30.50;;;19.57;;
3261;SDS011;1643;47.746;9.000;2023-02-28T15:29:23;39.33;;;23.00;;
3261;SDS011;1643;47.746;9.000;2023-02-28T15:31:55;30.50;;;18.60;;
3261;SDS011;1643;47.746;9.000;2023-02-28T15:34:35;20.33;;;16.30;;
3261;SDS011;1643;47.746;9.000;2023-02-28T15:40:14;27.27;;;22.93;;
3261;SDS011;1643;47.746;9.000;2023-02-28T15:42:41;16.37;;;13.07;;
3261;SDS011;1643;47.746;9.000;2023-02-28T15:45:26;14.30;;;12.20;;
3261;SDS011;1643;47.746;9.000;2023-02-28T15:48:09;16.87;;;11.10;;
3261;SDS011;1643;47.746;9.000;2023-02-28T15:50:40;13.00;;;10.10;;
3261;SDS011;1643;47.746;9.000;2023-02-28T15:53:12;14.13;;;9.50;;
3261;SDS011;1643;47.746;9.000;2023-02-28T15:55:40;13.30;;;10.70;;
3261;SDS011;1643;47.746;9.000;2023-02-28T15:58:07;13.10;;;10.03;;
3261;SDS011;1643;47.746;9.000;2023-02-28T16:00:38;11.40;;;9.70;;
3261;SDS011;1643;47.746;9.000;2023-02-28T16:03:24;12.50;;;11.20;;
3261;SDS011;1643;47.746;9.000;2023-02-28T16:07:00;13.33;;;10.67;;
3261;SDS011;1643;47.746;9.000;2023-02-28T16:09:00;11.60;;;9.47;;
3261;SDS011;1643;47.746;9.000;2023-02-28T16:11:26;13.27;;;9.80;;
3261;SDS011;1643;47.746;9.000;2023-02-28T16:13:51;15.60;;;11.00;;
3261;SDS011;1643;47.746;9.000;2023-02-28T16:16:19;14.90;;;10.80;;
3261;SDS011;1643;47.746;9.000;2023-02-28T16:18:47;13.60;;;10.33;;
3261;SDS011;1643;47.746;9.000;2023-02-28T16:21:13;15.47;;;10.80;;
3261;SDS011;1643;47.746;9.000;2023-02-28T16:23:38;14.10;;;10.47;;
3261;SDS011;1643;47.746;9.000;2023-02-28T16:26:04;16.17;;;10.80;;
3261;SDS011;1643;47.746;9.000;2023-02-28T16:28:32;21.17;;;13.80;;
3261;SDS011;1643;47.746;9.000;2023-02-28T16:31:01;52.43;;;31.23;;
3261;SDS011;1643;47.746;9.000;2023-02-28T16:33:29;42.53;;;27.47;;
3261;SDS011;1643;47.746;9.000;2023-02-28T16:35:55;38.77;;;24.13;;
3261;SDS011;1643;47.746;9.000;2023-02-28T16:38:21;26.40;;;20.43;;
3261;SDS011;1643;47.746;9.000;2023-02-28T16:40:48;37.73;;;23.33;;
3261;SDS011;1643;47.746;9.000;2023-02-28T16:43:18;28.20;;;21.57;;
3261;SDS011;1643;47.746;9.000;2023-02-28T16:45:47;28.03;;;18.60;;
3261;SDS011;1643;47.746;9.000;2023-02-28T16:48:14;23.10;;;14.37;;
3261;SDS011;1643;47.746;9.000;2023-02-28T16:50:41;16.20;;;12.50;;
3261;SDS011;1643;47.746;9.000;2023-02-28T16:53:09;18.30;;;12.77;;
3261;SDS011;1643;47.746;9.000;2023-02-28T16:55:35;18.60;;;11.20;;
3261;SDS011;1643;47.746;9.000;2023-02-28T16:58:01;18.67;;;12.20;;
3261;SDS011;1643;47.746;9.000;2023-02-28T17:00:27;21.73;;;11.73;;
3261;SDS011;1643;47.746;9.000;2023-02-28T17:02:54;21.90;;;14.60;;
3261;SDS011;1643;47.746;9.000;2023-02-28T17:05:21;21.10;;;13.57;;
3261;SDS011;1643;47.746;9.000;2023-02-28T17:07:47;19.50;;;12.50;;
3261;SDS011;1643;47.746;9.000;2023-02-28T17:10:15;18.20;;;13.83;;
3261;SDS011;1643;47.746;9.000;2023-02-28T17:12:48;17.93;;;11.83;;
3261;SDS011;1643;47.746;9.000;2023-02-28T17:15:14;20.27;;;12.73;;
3261;SDS011;1643;47.746;9.000;2023-02-28T17:17:41;19.87;;;12.07;;
3261;SDS011;1643;47.746;9.000;2023-02-28T17:20:11;23.13;;;13.47;;
3261;SDS011;1643;47.746;9.000;2023-02-28T17:22:39;27.97;;;15.00;;
3261;SDS011;1643;47.746;9.000;2023-02-28T17:25:04;27.63;;;15.07;;
3261;SDS011;1643;47.746;9.000;2023-02-28T17:27:30;20.00;;;14.10;;
3261;SDS011;1643;47.746;9.000;2023-02-28T17:29:56;17.20;;;13.03;;
3261;SDS011;1643;47.746;9.000;2023-02-28T17:32:22;24.57;;;16.80;;
3261;SDS011;1643;47.746;9.000;2023-02-28T17:34:48;28.43;;;17.10;;
3261;SDS011;1643;47.746;9.000;2023-02-28T17:37:14;31.07;;;17.57;;
3261;SDS011;1643;47.746;9.000;2023-02-28T17:39:40;23.47;;;14.67;;
3261;SDS011;1643;47.746;9.000;2023-02-28T17:42:05;27.97;;;19.17;;
3261;SDS011;1643;47.746;9.000;2023-02-28T17:44:31;22.13;;;16.60;;
3261;SDS011;1643;47.746;9.000;2023-02-28T17:46:57;20.10;;;14.70;;
3261;SDS011;1643;47.746;9.000;2023-02-28T17:49:24;25.70;;;15.33;;
3261;SDS011;1643;47.746;9.000;2023-02-28T17:51:50;21.13;;;13.50;;
3261;SDS011;1643;47.746;9.000;2023-02-28T17:54:15;19.10;;;12.87;;
3261;SDS011;1643;47.746;9.000;2023-02-28T17:56:41;16.50;;;12.20;;
3261;SDS011;1643;47.746;9.000;2023-02-28T17:59:09;17.10;;;12.27;;
3261;SDS011;1643;47.746;9.000;2023-02-28T18:01:36;18.03;;;12.50;;
3261;SDS011;1643;47.746;9.000;2023-02-28T18:04:02;18.27;;;13.40;;